Time;durP1;ratioP1;P1;durP2;ratioP2;P2;SDS_P1;SDS_P2;PMS_P1;PMS_P2;Temp;Humidity;BMP_temperature;BMP_pressure;BME280_temperature;BME280_humidity;BME280_pressure;Samples;Min_cycle;Max_cycle;Signal;HPM_P1;HPM_P2
2022/07/15 00:00:17;;;;;;;10.30;2.40;;;;;;;14.43;76.24;99182.34;8398769;28;20040;-73
2022/07/15 00:04:37;;;;;;;6.05;2.53;;;;;;;14.40;76.51;99177.53;8406437;28;20041;-73
2022/07/15 00:08:37;;;;;;;3.75;2.53;;;;;;;14.31;76.44;99179.50;8407619;28;20048;-73
2022/07/15 00:12:40;;;;;;;7.53;2.65;;;;;;;14.20;76.67;99181.03;8408338;28;20095;-73
2022/07/15 00:16:42;;;;;;;6.18;2.17;;;;;;;14.04;77.07;99180.00;8411946;28;20051;-73
2022/07/15 00:20:44;;;;;;;6.25;2.30;;;;;;;13.93;77.22;99183.13;8403930;28;20040;-73
2022/07/15 00:24:45;;;;;;;3.53;2.33;;;;;;;13.78;77.45;99180.16;8371480;28;20109;-74
2022/07/15 00:28:46;;;;;;;5.72;2.67;;;;;;;13.67;77.63;99187.88;8392821;28;20044;-73
2022/07/15 00:32:47;;;;;;;6.50;2.42;;;;;;;13.53;77.86;99187.31;8405199;28;20194;-73
2022/07/15 00:36:48;;;;;;;7.50;2.92;;;;;;;13.47;78.00;99194.84;8408498;28;20166;-73
2022/07/15 00:40:50;;;;;;;12.70;2.47;;;;;;;13.38;77.88;99195.97;8403652;28;20052;-73
2022/07/15 00:44:51;;;;;;;13.65;2.45;;;;;;;13.30;77.96;99211.19;8410115;28;20714;-73
2022/07/15 00:48:52;;;;;;;5.00;2.65;;;;;;;13.15;78.20;99208.19;8414150;28;20048;-74
2022/07/15 00:53:01;;;;;;;4.57;2.40;;;;;;;13.04;78.82;99202.28;8387962;28;20544;-72
2022/07/15 00:57:02;;;;;;;5.45;2.22;;;;;;;12.99;78.53;99200.53;8401255;28;20045;-73
2022/07/15 01:01:04;;;;;;;5.05;2.70;;;;;;;12.96;78.65;99206.59;8382541;28;20424;-73
2022/07/15 01:05:06;;;;;;;5.63;2.60;;;;;;;12.90;78.53;99201.69;8387839;28;20515;-73
2022/07/15 01:09:07;;;;;;;4.10;2.33;;;;;;;12.81;78.54;99207.09;8390075;28;20123;-74
2022/07/15 01:13:08;;;;;;;4.32;2.50;;;;;;;12.65;78.61;99211.41;8419475;28;20044;-72
2022/07/15 01:17:10;;;;;;;6.68;2.10;;;;;;;12.55;78.54;99206.31;8384985;28;20097;-73
2022/07/15 01:21:11;;;;;;;5.85;2.50;;;;;;;12.44;78.70;99210.44;8387593;28;20060;-73
2022/07/15 01:25:14;;;;;;;7.97;2.67;;;;;;;12.39;78.79;99229.56;8369235;28;20052;-72
2022/07/15 01:29:14;;;;;;;6.45;2.38;;;;;;;12.23;78.92;99231.94;8400681;28;20051;-72
2022/07/15 01:33:16;;;;;;;6.45;2.35;;;;;;;12.23;78.85;99238.16;8407627;28;20571;-73
2022/07/15 01:37:17;;;;;;;6.15;2.45;;;;;;;12.30;78.56;99234.19;8407314;28;20048;-73
2022/07/15 01:41:18;;;;;;;5.82;2.30;;;;;;;12.41;78.48;99238.19;8381937;28;20048;-72
2022/07/15 01:45:19;;;;;;;8.07;3.13;;;;;;;12.53;78.41;99251.91;8404990;28;20036;-73
2022/07/15 01:49:25;;;;;;;6.40;2.70;;;;;;;12.66;78.19;99245.50;8405030;28;20055;-73
2022/07/15 01:53:27;;;;;;;4.45;2.55;;;;;;;12.75;78.08;99243.59;8343528;28;20095;-73
2022/07/15 01:57:28;;;;;;;9.23;2.80;;;;;;;12.85;77.59;99251.41;8367694;28;20105;-72
2022/07/15 02:01:29;;;;;;;8.95;2.83;;;;;;;12.97;77.08;99251.56;8366311;28;20123;-73
2022/07/15 02:05:30;;;;;;;8.82;2.70;;;;;;;13.05;76.60;99252.69;8341446;28;20095;-73
2022/07/15 02:09:31;;;;;;;9.23;2.67;;;;;;;13.11;75.56;99257.63;8350379;28;20098;-73
2022/07/15 02:13:32;;;;;;;8.57;2.28;;;;;;;13.25;74.66;99253.94;8373557;28;20049;-73
2022/07/15 02:17:33;;;;;;;7.82;2.67;;;;;;;13.31;74.50;99260.78;8368787;28;20467;-73
2022/07/15 02:21:35;;;;;;;5.63;2.40;;;;;;;13.30;74.25;99264.63;8370793;28;20078;-73
2022/07/15 02:25:36;;;;;;;10.32;2.50;;;;;;;13.31;74.35;99271.66;8366687;28;20065;-73
2022/07/15 02:29:38;;;;;;;6.25;1.83;;;;;;;13.34;73.82;99271.00;8368490;28;20236;-73
2022/07/15 02:33:39;;;;;;;11.65;2.00;;;;;;;13.35;73.74;99278.00;8370785;28;20045;-72
2022/07/15 02:37:41;;;;;;;5.93;1.88;;;;;;;13.37;73.52;99278.50;8364089;28;20048;-73
2022/07/15 02:41:43;;;;;;;4.18;1.60;;;;;;;13.41;73.28;99282.94;8297062;28;20049;-73
2022/07/15 02:45:44;;;;;;;10.30;2.15;;;;;;;13.44;73.31;99292.34;8367011;28;20377;-74
2022/07/15 02:49:44;;;;;;;7.70;1.85;;;;;;;13.46;73.59;99295.53;8365288;28;20045;-73
2022/07/15 02:53:46;;;;;;;4.95;1.45;;;;;;;13.46;73.43;99295.53;8405634;28;20135;-73
2022/07/15 02:57:47;;;;;;;5.55;1.65;;;;;;;13.39;73.57;99303.38;8404309;28;20052;-73
2022/07/15 03:01:49;;;;;;;6.82;1.63;;;;;;;13.31;73.87;99304.19;8408930;28;20051;-73
2022/07/15 03:05:50;;;;;;;4.22;1.73;;;;;;;13.29;74.25;99317.25;8401431;28;20052;-73
2022/07/15 03:09:53;;;;;;;6.07;1.55;;;;;;;13.23;74.29;99318.53;8375109;28;20044;-73
2022/07/15 03:13:56;;;;;;;6.20;1.73;;;;;;;13.16;74.30;99323.69;8409961;28;20102;-73
2022/07/15 03:17:57;;;;;;;3.80;1.70;;;;;;;13.06;74.62;99325.53;8408425;28;20049;-73
2022/07/15 03:21:58;;;;;;;2.75;1.20;;;;;;;12.97;75.27;99332.88;8413792;28;20040;-73
2022/07/15 03:25:59;;;;;;;4.47;1.60;;;;;;;12.87;75.47;99333.19;8388940;28;20476;-73
2022/07/15 03:30:01;;;;;;;2.88;1.50;;;;;;;12.81;75.72;99339.09;8415636;28;20150;-73
2022/07/15 03:34:02;;;;;;;5.50;1.50;;;;;;;12.73;76.07;99337.97;8414536;28;20135;-72
2022/07/15 03:38:03;;;;;;;6.50;1.77;;;;;;;12.65;76.58;99342.25;8408702;28;20060;-72
2022/07/15 03:42:04;;;;;;;3.65;1.20;;;;;;;12.62;76.77;99352.94;8413477;28;20462;-72
2022/07/15 03:46:06;;;;;;;4.38;1.42;;;;;;;12.57;77.02;99353.09;8404245;28;20048;-71
2022/07/15 03:50:08;;;;;;;2.38;1.33;;;;;;;12.54;77.46;99356.41;8369272;28;20119;-73
2022/07/15 03:54:09;;;;;;;3.80;1.60;;;;;;;12.54;77.41;99367.25;8356171;28;20071;-72
2022/07/15 03:58:10;;;;;;;5.95;1.55;;;;;;;12.54;77.43;99367.25;8373900;28;20047;-72
2022/07/15 04:02:11;;;;;;;5.75;1.65;;;;;;;12.55;77.66;99368.84;8385683;28;20061;-72
2022/07/15 04:06:12;;;;;;;5.88;1.60;;;;;;;12.60;77.48;99366.78;8402211;28;20059;-75
2022/07/15 04:10:13;;;;;;;3.97;1.45;;;;;;;12.65;77.14;99379.38;8349907;28;20468;-72
2022/07/15 04:14:15;;;;;;;5.05;1.55;;;;;;;12.71;76.53;99383.56;8411272;28;20052;-74
2022/07/15 04:18:16;;;;;;;5.88;1.48;;;;;;;12.76;76.06;99380.69;8403197;28;20118;-73
2022/07/15 04:22:17;;;;;;;6.72;1.38;;;;;;;12.87;75.00;99387.41;8401780;28;20105;-74
2022/07/15 04:26:18;;;;;;;4.95;1.40;;;;;;;12.97;74.39;99381.69;8366818;28;20162;-73
2022/07/15 04:30:19;;;;;;;7.07;1.52;;;;;;;13.04;73.62;99384.72;8402263;28;20059;-74
2022/07/15 04:34:20;;;;;;;4.88;1.30;;;;;;;13.15;73.26;99398.81;8402109;28;20056;-73
2022/07/15 04:38:21;;;;;;;8.82;1.23;;;;;;;13.24;72.78;99396.09;8403612;28;20053;-74
2022/07/15 04:42:22;;;;;;;8.18;1.35;;;;;;;13.30;72.73;99400.22;8401020;28;20128;-74
2022/07/15 04:46:24;;;;;;;7.00;1.40;;;;;;;13.34;72.76;99401.19;8396400;28;20055;-74
2022/07/15 04:54:45;;;;;;;7.18;1.13;;;;;;;13.45;72.13;99407.88;8403278;28;20044;-74
2022/07/15 04:58:46;;;;;;;3.72;1.25;;;;;;;13.52;72.12;99405.50;8403258;28;20048;-75
2022/07/15 05:02:47;;;;;;;3.72;1.10;;;;;;;13.60;71.95;99410.09;8402496;28;20040;-75
2022/07/15 05:06:48;;;;;;;6.20;1.20;;;;;;;13.66;71.49;99416.97;8383584;28;20213;-74
2022/07/15 05:10:49;;;;;;;3.97;1.33;;;;;;;13.74;71.51;99421.59;8400052;28;20041;-74
2022/07/15 05:14:50;;;;;;;5.32;1.20;;;;;;;13.81;71.51;99438.19;8405805;28;20557;-73
2022/07/15 05:18:51;;;;;;;3.97;1.25;;;;;;;13.78;71.18;99444.25;8406442;28;20098;-73
2022/07/15 05:22:54;;;;;;;7.93;1.30;;;;;;;13.81;71.15;99443.59;8371931;28;20100;-74
2022/07/15 05:26:55;;;;;;;9.68;1.40;;;;;;;13.89;70.85;99450.97;8404778;28;20047;-74
2022/07/15 05:30:56;;;;;;;7.18;1.10;;;;;;;13.98;70.47;99458.28;8411374;28;20093;-74
2022/07/15 05:34:58;;;;;;;2.75;0.90;;;;;;;14.04;70.02;99462.44;8408108;28;20805;-73
2022/07/15 05:38:59;;;;;;;5.93;1.00;;;;;;;14.10;69.49;99455.72;8398997;28;20056;-74
2022/07/15 05:43:00;;;;;;;4.43;1.13;;;;;;;14.10;69.28;99461.13;8403845;28;20554;-73
2022/07/15 05:47:01;;;;;;;1.70;0.80;;;;;;;14.21;69.47;99474.06;8366262;28;20071;-74
2022/07/15 05:51:02;;;;;;;6.57;0.90;;;;;;;14.30;69.15;99474.03;8399538;28;20349;-74
2022/07/15 05:55:04;;;;;;;5.75;1.17;;;;;;;14.41;67.96;99472.59;8397072;28;20465;-75
2022/07/15 05:59:06;;;;;;;7.88;1.05;;;;;;;14.45;67.63;99473.53;8348479;28;20071;-74
2022/07/15 06:03:07;;;;;;;5.35;1.05;;;;;;;14.57;67.93;99475.56;8403169;28;20051;-75
2022/07/15 06:07:08;;;;;;;7.40;1.38;;;;;;;14.64;67.08;99476.66;8347199;28;20411;-74
2022/07/15 06:11:11;;;;;;;5.78;0.90;;;;;;;14.71;66.64;99482.38;8413173;28;20044;-74
2022/07/15 06:15:13;;;;;;;6.85;1.05;;;;;;;14.73;65.38;99488.28;8414038;28;20032;-73
2022/07/15 06:19:14;;;;;;;9.27;1.20;;;;;;;14.72;65.26;99489.41;8407864;28;20063;-74
2022/07/15 06:23:16;;;;;;;4.75;1.20;;;;;;;14.76;64.74;99495.78;8398286;28;20462;-74
2022/07/15 06:27:21;;;;;;;5.63;1.17;;;;;;;14.77;63.28;99486.50;8424937;28;20052;-73
2022/07/15 06:31:23;;;;;;;11.13;1.27;;;;;;;14.83;63.17;99484.41;8388664;28;20500;-74
2022/07/15 06:35:24;;;;;;;5.63;1.30;;;;;;;14.98;62.59;99491.19;8426353;28;20193;-74
2022/07/15 06:39:26;;;;;;;5.55;1.10;;;;;;;15.09;61.09;99497.88;8425814;28;20071;-75
2022/07/15 06:43:28;;;;;;;5.75;1.52;;;;;;;15.16;58.04;99504.41;8332297;28;20515;-74
2022/07/15 06:47:31;;;;;;;8.98;1.45;;;;;;;15.21;58.38;99500.69;8426685;28;20043;-74
2022/07/15 06:51:32;;;;;;;7.78;1.50;;;;;;;15.26;58.22;99497.78;8414612;28;20076;-74
2022/07/15 06:55:34;;;;;;;3.63;1.23;;;;;;;15.39;58.57;99513.03;8416645;28;20046;-74
2022/07/15 06:59:36;;;;;;;6.38;1.23;;;;;;;15.43;57.88;99516.72;8397080;28;20064;-74
2022/07/15 07:03:38;;;;;;;5.30;1.00;;;;;;;15.53;56.67;99510.91;8432025;28;20183;-74
2022/07/15 07:07:41;;;;;;;9.88;1.38;;;;;;;15.62;57.74;99506.19;8351115;28;20075;-74
2022/07/15 07:11:45;;;;;;;6.82;1.25;;;;;;;15.67;56.82;99518.00;8353747;28;20052;-75
2022/07/15 07:15:46;;;;;;;9.77;1.30;;;;;;;15.79;57.10;99512.63;8394575;28;20427;-73
2022/07/15 07:19:48;;;;;;;7.75;1.10;;;;;;;15.84;56.75;99520.59;8429657;28;20075;-74
2022/07/15 07:23:49;;;;;;;8.00;1.25;;;;;;;15.95;55.84;99513.59;8325142;28;20054;-74
2022/07/15 07:27:50;;;;;;;5.53;1.08;;;;;;;16.04;56.41;99517.03;8327431;28;20055;-75
2022/07/15 07:31:53;;;;;;;7.07;1.25;;;;;;;16.15;56.04;99523.69;8326385;28;20042;-74
2022/07/15 07:35:54;;;;;;;7.38;1.02;;;;;;;16.25;55.51;99512.34;8294440;28;20037;-74
2022/07/15 07:39:57;;;;;;;6.28;1.33;;;;;;;16.30;55.47;99520.31;8322377;28;20042;-74
2022/07/15 07:43:59;;;;;;;3.88;0.88;;;;;;;16.20;56.66;99520.75;8326526;28;20054;-74
2022/07/15 07:48:00;;;;;;;5.43;1.27;;;;;;;16.42;56.21;99523.09;8329002;28;20132;-74
2022/07/15 07:52:02;;;;;;;6.10;0.60;;;;;;;16.66;53.77;99521.56;8282001;28;20046;-74
2022/07/15 07:56:04;;;;;;;3.55;1.10;;;;;;;16.77;53.83;99523.50;8432884;28;20051;-74
2022/07/15 08:00:06;;;;;;;7.97;1.20;;;;;;;17.15;54.51;99523.19;8427354;28;20054;-75
2022/07/15 08:04:10;;;;;;;2.83;0.90;;;;;;;17.04;53.30;99516.59;8426979;28;20063;-76
2022/07/15 08:08:15;;;;;;;6.38;0.98;;;;;;;17.29;52.54;99529.06;8405308;28;20056;-75
2022/07/15 08:12:16;;;;;;;4.28;1.05;;;;;;;17.29;52.36;99522.81;8428976;28;20052;-75
2022/07/15 08:16:18;;;;;;;2.50;0.85;;;;;;;17.31;53.49;99529.53;8356121;28;20565;-74
2022/07/15 08:20:19;;;;;;;6.63;1.00;;;;;;;17.68;52.09;99524.03;8351699;28;20057;-73
2022/07/15 08:24:20;;;;;;;2.97;0.82;;;;;;;17.60;51.17;99527.72;8357842;28;20049;-75
2022/07/15 08:28:21;;;;;;;6.90;0.95;;;;;;;17.43;50.10;99538.84;8344518;28;20053;-74
2022/07/15 08:32:23;;;;;;;1.77;0.68;;;;;;;17.58;49.23;99529.94;8358674;28;20059;-74
2022/07/15 08:36:25;;;;;;;10.30;1.00;;;;;;;17.68;49.10;99541.22;8358187;28;20069;-74
2022/07/15 08:40:29;;;;;;;4.88;0.90;;;;;;;17.77;48.70;99543.81;8269605;28;20083;-74
2022/07/15 08:44:35;;;;;;;6.45;0.75;;;;;;;17.67;47.54;99549.75;8338354;28;20037;-74
2022/07/15 08:48:48;;;;;;;2.28;0.80;;;;;;;17.58;48.58;99557.25;8373735;28;20072;-74
2022/07/15 08:52:51;;;;;;;8.00;1.15;;;;;;;17.80;49.42;99554.06;8411911;28;20068;-74
2022/07/15 08:56:53;;;;;;;3.10;0.77;;;;;;;18.11;46.86;99564.31;8422192;28;20040;-74
2022/07/15 09:00:55;;;;;;;4.93;0.80;;;;;;;17.90;47.64;99569.97;8375866;28;20542;-73
2022/07/15 09:05:36;;;;;;;2.20;0.80;;;;;;;17.75;48.02;99562.50;8422931;28;20093;-74
2022/07/15 09:09:37;;;;;;;2.22;0.70;;;;;;;18.06;47.75;99562.63;8315384;28;20084;-74
2022/07/15 09:13:40;;;;;;;3.55;0.82;;;;;;;18.19;47.25;99565.34;8359149;28;20068;-74
2022/07/15 09:17:42;;;;;;;6.05;0.82;;;;;;;18.04;47.10;99559.44;8353503;28;20068;-73
2022/07/15 09:22:04;;;;;;;3.67;0.85;;;;;;;17.91;47.52;99568.84;8324593;28;20560;-75
2022/07/15 09:26:32;;;;;;;4.28;0.70;;;;;;;17.87;47.60;99567.91;8340411;28;20524;-74
2022/07/15 09:35:04;;;;;;;5.55;0.98;;;;;;;18.47;44.56;99568.84;8343152;28;20052;-75
2022/07/15 09:39:06;;;;;;;4.20;0.90;;;;;;;18.18;44.72;99574.69;8356571;28;20040;-75
2022/07/15 09:43:07;;;;;;;3.83;0.60;;;;;;;18.21;43.27;99563.81;8423306;28;20051;-73
2022/07/15 09:47:18;;;;;;;4.88;0.70;;;;;;;18.71;41.37;99566.00;8417687;28;20055;-73
2022/07/15 09:51:20;;;;;;;1.90;0.85;;;;;;;19.20;41.69;99554.69;8422372;28;20109;-74
2022/07/15 09:55:21;;;;;;;2.28;0.75;;;;;;;19.50;40.16;99552.31;8398038;28;20040;-75
2022/07/15 09:59:22;;;;;;;1.50;0.50;;;;;;;19.20;40.51;99565.63;8408038;28;20048;-75
2022/07/15 10:03:24;;;;;;;8.60;0.90;;;;;;;18.99;41.73;99563.97;8402647;28;20066;-74
2022/07/15 10:07:26;;;;;;;4.95;0.70;;;;;;;18.73;42.31;99585.59;8391527;28;20047;-74
2022/07/15 10:11:27;;;;;;;2.97;0.80;;;;;;;18.95;41.73;99570.50;8396468;28;20050;-74
2022/07/15 10:15:50;;;;;;;2.95;0.90;;;;;;;19.11;40.78;99562.31;8413319;28;20570;-73
2022/07/15 10:20:11;;;;;;;3.80;0.80;;;;;;;18.98;40.63;99565.13;8410890;28;20067;-74
2022/07/15 10:24:26;;;;;;;7.18;1.10;;;;;;;18.96;40.49;99572.91;8426051;28;20503;-73
2022/07/15 10:28:51;;;;;;;4.90;1.13;;;;;;;19.69;39.07;99561.34;8409753;28;20466;-73
2022/07/15 10:33:14;;;;;;;4.60;1.02;;;;;;;20.14;39.42;99559.94;8415104;28;20093;-74
2022/07/15 10:37:17;;;;;;;3.75;0.77;;;;;;;19.94;40.16;99572.03;8386425;28;20048;-75
2022/07/15 10:41:21;;;;;;;6.70;1.00;;;;;;;19.62;39.29;99577.63;8415919;28;20052;-75
2022/07/15 10:45:22;;;;;;;5.45;0.90;;;;;;;19.37;39.43;99577.03;8415902;28;20491;-75
2022/07/15 10:49:28;;;;;;;2.28;0.75;;;;;;;19.11;40.97;99573.25;8421085;28;20044;-74
2022/07/15 10:53:30;;;;;;;5.85;1.05;;;;;;;19.17;40.39;99574.56;8411927;28;20414;-74
2022/07/15 10:57:53;;;;;;;4.20;1.02;;;;;;;19.22;40.33;99563.34;8432634;28;20044;-75
2022/07/15 11:01:57;;;;;;;5.60;1.08;;;;;;;18.99;40.85;99574.94;8399115;28;20051;-75
2022/07/15 11:06:07;;;;;;;5.43;1.10;;;;;;;19.17;40.44;99566.38;8385100;28;20040;-74
2022/07/15 11:10:08;;;;;;;5.60;1.08;;;;;;;19.09;40.30;99576.34;8386886;28;20047;-75
2022/07/15 11:14:55;;;;;;;7.28;1.15;;;;;;;19.64;40.43;99569.84;8424138;28;20044;-75
2022/07/15 11:18:58;;;;;;;6.85;1.20;;;;;;;19.52;39.86;99578.19;8289972;28;20473;-75
2022/07/15 11:23:03;;;;;;;5.03;0.85;;;;;;;19.56;41.05;99584.56;8276197;28;20522;-75
2022/07/15 11:27:07;;;;;;;3.50;1.27;;;;;;;19.59;40.43;99572.06;8238501;28;20057;-75
2022/07/15 11:31:10;;;;;;;7.93;1.23;;;;;;;19.58;41.08;99576.75;8294208;28;20133;-75
2022/07/15 11:35:14;;;;;;;6.72;1.30;;;;;;;19.39;40.57;99580.22;8295067;28;20072;-75
2022/07/15 11:39:28;;;;;;;4.07;1.08;;;;;;;19.52;41.09;99575.44;8268005;28;20120;-75
2022/07/15 11:47:54;;;;;;;6.18;1.20;;;;;;;20.21;39.67;99571.03;8294836;28;20111;-75
2022/07/15 11:51:59;;;;;;;4.18;1.00;;;;;;;19.98;39.11;99567.44;8294817;28;20137;-75
2022/07/15 11:56:01;;;;;;;4.47;1.08;;;;;;;19.75;39.05;99568.16;8352701;28;20455;-75
2022/07/15 12:00:03;;;;;;;8.60;1.23;;;;;;;19.66;39.92;99573.03;8385194;28;20074;-76
2022/07/15 12:04:05;;;;;;;3.97;1.02;;;;;;;19.81;39.54;99574.94;8386333;28;20480;-75
2022/07/15 12:08:06;;;;;;;5.93;1.10;;;;;;;20.55;39.26;99575.69;8395521;28;20859;-76
2022/07/15 12:12:07;;;;;;;5.03;1.38;;;;;;;20.89;39.05;99578.63;8391097;28;20055;-75
2022/07/15 12:16:10;;;;;;;4.25;1.13;;;;;;;20.43;38.72;99584.06;8376936;28;20399;-75
2022/07/15 12:20:14;;;;;;;4.22;0.90;;;;;;;20.16;39.15;99579.56;8384697;28;20056;-75
2022/07/15 12:24:25;;;;;;;3.50;0.90;;;;;;;20.37;38.75;99580.03;8393134;28;20045;-76
2022/07/15 12:28:31;;;;;;;3.58;1.17;;;;;;;20.84;37.40;99581.66;8357498;28;20049;-76
2022/07/15 12:32:34;;;;;;;4.53;1.02;;;;;;;20.92;37.92;99575.16;8395805;28;20044;-75
2022/07/15 12:36:38;;;;;;;4.53;1.02;;;;;;;20.59;37.27;99587.50;8361075;28;20048;-75
2022/07/15 12:40:39;;;;;;;3.95;1.00;;;;;;;20.96;37.38;99581.50;8396478;28;20049;-75
2022/07/15 12:44:40;;;;;;;13.15;1.25;;;;;;;21.53;37.34;99585.19;8395947;28;20457;-75
2022/07/15 12:48:47;;;;;;;5.55;1.38;;;;;;;21.37;38.00;99583.38;8360963;28;20060;-75
2022/07/15 12:52:54;;;;;;;5.68;1.25;;;;;;;21.12;37.72;99582.16;8378791;28;20116;-75
2022/07/15 12:57:03;;;;;;;4.65;1.13;;;;;;;20.69;37.67;99580.63;8394484;28;20040;-75
2022/07/15 13:01:10;;;;;;;3.58;1.20;;;;;;;20.83;37.38;99571.88;8289848;28;20048;-75
2022/07/15 13:05:12;;;;;;;3.70;1.15;;;;;;;21.34;37.01;99578.63;8311396;28;20049;-75
2022/07/15 13:09:13;;;;;;;4.35;1.10;;;;;;;21.75;36.10;99565.09;8280626;28;20045;-75
2022/07/15 13:13:17;;;;;;;5.22;1.23;;;;;;;21.53;36.17;99574.19;8316361;28;20060;-75
2022/07/15 13:17:18;;;;;;;8.00;1.23;;;;;;;21.43;36.34;99576.41;8348223;28;20056;-75
2022/07/15 13:21:19;;;;;;;3.70;1.00;;;;;;;21.45;36.70;99579.59;8355911;28;20048;-75
2022/07/15 13:25:20;;;;;;;3.35;1.23;;;;;;;21.50;36.26;99570.25;8334841;28;20465;-75
2022/07/15 13:29:22;;;;;;;7.22;1.13;;;;;;;21.78;36.22;99580.84;8278293;28;20041;-75
2022/07/15 13:33:23;;;;;;;6.75;1.33;;;;;;;21.66;36.17;99578.31;8350121;28;20211;-76
2022/07/15 13:37:24;;;;;;;9.50;1.30;;;;;;;21.44;36.57;99578.00;8326609;28;20440;-75
2022/07/15 13:41:25;;;;;;;2.47;1.10;;;;;;;22.71;34.40;99561.56;8353718;28;20072;-75
2022/07/15 13:45:26;;;;;;;4.25;1.38;;;;;;;24.53;33.11;99565.13;8357665;28;20424;-75
2022/07/15 13:53:47;;;;;;;5.15;1.30;;;;;;;25.31;30.08;99576.25;8282279;28;20052;-75
2022/07/15 13:57:48;;;;;;;2.88;1.02;;;;;;;25.49;29.64;99577.00;8350592;28;20045;-75
2022/07/15 14:01:51;;;;;;;3.63;1.08;;;;;;;24.37;31.17;99578.47;8347622;28;20044;-76
2022/07/15 14:05:51;;;;;;;4.93;1.10;;;;;;;25.77;31.01;99569.88;8346038;28;20041;-76
2022/07/15 14:09:55;;;;;;;4.47;1.23;;;;;;;25.36;30.85;99573.09;8353080;28;20049;-75
2022/07/15 14:13:59;;;;;;;7.28;0.98;;;;;;;24.04;32.03;99573.19;8341101;28;20065;-74
2022/07/15 14:18:04;;;;;;;4.85;1.05;;;;;;;24.20;32.38;99568.16;8360978;28;20492;-75
2022/07/15 14:22:05;;;;;;;5.68;1.20;;;;;;;25.04;32.08;99561.25;8335901;28;20053;-76
2022/07/15 14:26:06;;;;;;;5.47;1.15;;;;;;;25.28;30.72;99577.03;8341929;28;20136;-74
2022/07/15 14:30:08;;;;;;;5.70;1.17;;;;;;;23.89;33.01;99581.41;8331864;28;20103;-75
2022/07/15 14:34:09;;;;;;;4.30;1.30;;;;;;;22.90;33.97;99580.63;8347148;28;20045;-74
2022/07/15 14:38:10;;;;;;;4.10;1.10;;;;;;;24.99;32.71;99567.19;8342722;28;20501;-73
2022/07/15 14:42:12;;;;;;;4.57;1.20;;;;;;;25.08;30.78;99573.09;8292362;28;20053;-74
2022/07/15 14:46:16;;;;;;;5.32;1.50;;;;;;;24.27;31.19;99573.72;8352458;28;20653;-73
2022/07/15 14:50:17;;;;;;;2.92;1.10;;;;;;;24.25;31.95;99573.31;8330282;28;20041;-75
2022/07/15 14:54:19;;;;;;;9.55;1.35;;;;;;;24.50;31.79;99576.91;8334081;28;20055;-73
2022/07/15 14:58:20;;;;;;;4.30;1.15;;;;;;;22.99;32.21;99578.38;8382498;28;20076;-73
2022/07/15 15:02:21;;;;;;;4.75;1.10;;;;;;;22.38;33.84;99573.38;8375488;28;20057;-73
2022/07/15 15:06:23;;;;;;;6.00;1.15;;;;;;;23.40;33.42;99578.28;8380573;28;20480;-73
2022/07/15 15:10:24;;;;;;;2.08;1.02;;;;;;;22.81;33.54;99569.13;8378285;28;20420;-75
2022/07/15 15:14:25;;;;;;;8.32;1.17;;;;;;;22.43;33.78;99575.00;8383562;28;20555;-74
2022/07/15 15:18:27;;;;;;;7.53;1.10;;;;;;;25.19;30.63;99568.34;8389081;28;20095;-73
2022/07/15 15:22:29;;;;;;;4.35;1.02;;;;;;;27.82;27.80;99567.75;8377229;28;20097;-73
2022/07/15 15:26:31;;;;;;;4.85;1.30;;;;;;;28.88;25.56;99575.53;8388474;28;20456;-74
2022/07/15 15:30:33;;;;;;;4.60;1.10;;;;;;;26.90;27.19;99580.47;8384168;28;20045;-74
2022/07/15 15:34:39;;;;;;;4.43;1.05;;;;;;;25.33;29.81;99584.94;8390575;28;20068;-74
2022/07/15 15:38:40;;;;;;;3.47;1.42;;;;;;;27.21;27.78;99573.91;8385954;28;20564;-74
2022/07/15 15:42:44;;;;;;;29.67;1.90;;;;;;;28.53;25.77;99584.38;8385929;28;20051;-74
2022/07/15 15:46:45;;;;;;;2.25;1.10;;;;;;;28.30;25.21;99578.72;8389236;28;20095;-75
2022/07/15 15:50:46;;;;;;;7.40;1.17;;;;;;;27.18;26.58;99580.25;8396233;28;20063;-74
2022/07/15 15:54:47;;;;;;;3.88;1.08;;;;;;;26.08;28.19;99586.38;8418202;28;20045;-74
2022/07/15 15:58:48;;;;;;;2.75;1.00;;;;;;;25.53;28.38;99583.34;8412435;28;20052;-75
2022/07/15 16:02:50;;;;;;;5.00;1.08;;;;;;;24.52;29.78;99569.06;8420528;28;20090;-75
2022/07/15 16:06:50;;;;;;;4.80;0.90;;;;;;;23.74;30.73;99574.19;8419370;28;20156;-73
2022/07/15 16:10:51;;;;;;;4.45;0.90;;;;;;;23.41;31.80;99572.41;8418310;28;20071;-74
2022/07/15 16:14:52;;;;;;;2.90;1.00;;;;;;;23.23;31.82;99581.69;8404037;28;20056;-74
2022/07/15 16:18:54;;;;;;;2.65;0.90;;;;;;;22.90;32.43;99586.13;8417444;28;20048;-74
2022/07/15 16:22:57;;;;;;;3.28;0.80;;;;;;;22.40;32.15;99584.00;8423050;28;20135;-75
2022/07/15 16:26:58;;;;;;;8.20;1.40;;;;;;;22.32;33.62;99581.16;8417847;28;20040;-74
2022/07/15 16:31:01;;;;;;;2.33;1.00;;;;;;;21.91;33.82;99580.25;8424670;28;20189;-74
2022/07/15 16:35:03;;;;;;;3.55;1.10;;;;;;;21.78;34.42;99578.09;8365700;28;20060;-73
2022/07/15 16:39:04;;;;;;;6.70;1.48;;;;;;;21.62;36.13;99582.97;8366330;28;20048;-74
2022/07/15 16:43:06;;;;;;;5.07;1.10;;;;;;;21.52;36.29;99583.63;8417269;28;20495;-74
2022/07/15 16:47:07;;;;;;;7.57;1.20;;;;;;;21.40;36.38;99576.38;8418255;28;20040;-74
2022/07/15 16:51:08;;;;;;;1.20;0.70;;;;;;;21.24;36.31;99579.25;8384642;28;20048;-74
2022/07/15 16:55:10;;;;;;;3.42;1.05;;;;;;;20.99;36.21;99564.31;8414908;28;20416;-75
2022/07/15 16:59:11;;;;;;;4.18;0.90;;;;;;;20.74;36.44;99565.81;8417576;28;20044;-75
2022/07/15 17:03:12;;;;;;;8.68;1.15;;;;;;;20.76;37.31;99579.97;8416980;28;20419;-73
2022/07/15 17:07:15;;;;;;;2.88;1.13;;;;;;;20.74;38.14;99582.28;8425810;28;20457;-74
2022/07/15 17:11:15;;;;;;;7.28;1.00;;;;;;;20.63;38.63;99577.38;8416843;28;20070;-73
2022/07/15 17:15:17;;;;;;;3.35;1.15;;;;;;;20.49;38.87;99570.84;8410022;28;20528;-76
2022/07/15 17:19:18;;;;;;;5.72;1.00;;;;;;;20.27;38.67;99569.59;8409441;28;20040;-73
2022/07/15 17:23:19;;;;;;;5.78;1.40;;;;;;;20.13;38.26;99569.31;8423505;28;20134;-75
2022/07/15 17:27:20;;;;;;;3.72;1.10;;;;;;;20.10;38.88;99564.56;8386392;28;20047;-75
2022/07/15 17:31:21;;;;;;;6.75;1.10;;;;;;;20.05;39.15;99573.06;8363247;28;20045;-75
2022/07/15 17:35:22;;;;;;;3.53;1.10;;;;;;;19.94;39.32;99566.56;8422258;28;20423;-75
2022/07/15 17:39:26;;;;;;;6.03;1.17;;;;;;;19.97;38.62;99568.59;8416580;28;20045;-75
2022/07/15 17:43:27;;;;;;;3.72;0.90;;;;;;;19.87;39.21;99566.44;8395065;28;20040;-75
2022/07/15 17:47:28;;;;;;;7.78;1.00;;;;;;;19.78;39.01;99570.16;8422137;28;20052;-75
2022/07/15 17:51:29;;;;;;;2.72;1.00;;;;;;;19.61;38.93;99567.84;8418017;28;20522;-74
2022/07/15 17:55:30;;;;;;;5.53;1.17;;;;;;;19.40;39.46;99564.59;8420446;28;20048;-77
2022/07/15 17:59:32;;;;;;;3.15;1.02;;;;;;;19.29;39.37;99569.81;8409782;28;20087;-75
2022/07/15 18:03:33;;;;;;;4.43;1.10;;;;;;;19.12;40.01;99569.38;8412390;28;20052;-75
2022/07/15 18:07:34;;;;;;;3.10;1.05;;;;;;;18.96;40.19;99570.16;8412620;28;20118;-74
2022/07/15 18:11:35;;;;;;;2.35;0.90;;;;;;;18.84;40.86;99575.72;8415999;28;20096;-74
2022/07/15 18:15:36;;;;;;;5.45;1.15;;;;;;;18.68;41.82;99566.69;8380314;28;20119;-75
2022/07/15 18:19:37;;;;;;;6.88;1.33;;;;;;;18.55;41.57;99578.88;8383468;28;20177;-75
2022/07/15 18:23:38;;;;;;;4.45;0.90;;;;;;;18.43;42.56;99576.16;8420397;28;20051;-75
2022/07/15 18:27:40;;;;;;;6.10;1.00;;;;;;;18.26;43.26;99581.91;8421168;28;20048;-77
2022/07/15 18:31:41;;;;;;;5.45;1.00;;;;;;;18.10;44.38;99585.41;8409019;28;20037;-75
2022/07/15 18:35:42;;;;;;;5.00;0.93;;;;;;;18.00;45.00;99585.88;8416113;28;20407;-75
2022/07/15 18:39:43;;;;;;;3.63;0.80;;;;;;;17.86;45.65;99584.69;8410012;28;20048;-75
2022/07/15 18:43:44;;;;;;;3.72;1.00;;;;;;;17.65;46.73;99579.38;8417078;28;20537;-75
2022/07/15 18:47:45;;;;;;;4.78;1.02;;;;;;;17.44;47.67;99589.59;8416039;28;20044;-75
2022/07/15 18:51:47;;;;;;;3.95;1.20;;;;;;;17.19;48.59;99589.59;8414575;28;20050;-75
2022/07/15 18:55:48;;;;;;;4.32;0.98;;;;;;;16.99;49.38;99590.47;8431679;28;20519;-74
2022/07/15 18:59:49;;;;;;;4.50;0.90;;;;;;;16.78;50.16;99593.28;8383139;28;20128;-75
2022/07/15 19:03:51;;;;;;;8.88;1.10;;;;;;;16.58;51.49;99598.78;8432773;28;20048;-75
2022/07/15 19:07:53;;;;;;;5.05;0.90;;;;;;;16.37;51.96;99596.88;8418879;28;20040;-74
2022/07/15 19:11:54;;;;;;;6.47;1.30;;;;;;;16.20;52.39;99601.69;8432275;28;20055;-74
2022/07/15 19:15:55;;;;;;;8.45;1.83;;;;;;;16.03;53.10;99597.16;8430043;28;20044;-75
2022/07/15 19:19:56;;;;;;;9.75;1.50;;;;;;;15.82;53.67;99607.25;8394542;28;20068;-75